Time;durP1;ratioP1;P1;durP2;ratioP2;P2;SDS_P1;SDS_P2;PMS_P1;PMS_P2;Temp;Humidity;BMP_temperature;BMP_pressure;BME280_temperature;BME280_humidity;BME280_pressure;Samples;Min_cycle;Max_cycle;Signal;HPM_P1;HPM_P2
2024/01/16 00:01:14;;;;;;;;;;;;;;;2.39;61.56;100894.28;7303749;19;19947;-69
2024/01/16 00:03:44;;;;;;;;;;;;;;;2.39;61.94;100886.47;7300208;19;19919;-70
2024/01/16 00:06:12;;;;;;;;;;;;;;;2.40;62.00;100887.31;7285040;19;19922;-70
2024/01/16 00:08:39;;;;;;;;;;;;;;;2.41;61.95;100892.41;7303986;19;19957;-69
2024/01/16 00:11:12;;;;;;;;;;;;;;;2.36;62.05;100886.69;7296161;19;19934;-70
2024/01/16 00:13:39;;;;;;;;;;;;;;;2.40;62.63;100882.97;7286042;19;20005;-71
2024/01/16 00:16:05;;;;;;;;;;;;;;;2.43;63.74;100879.34;7294409;19;19919;-70
2024/01/16 00:18:32;;;;;;;;;;;;;;;2.41;64.52;100882.03;7310694;19;19913;-70
2024/01/16 00:21:01;;;;;;;;;;;;;;;2.41;64.47;100876.84;7305337;19;19933;-69
2024/01/16 00:23:31;;;;;;;;;;;;;;;2.48;67.68;100872.94;7297951;19;20664;-69
2024/01/16 00:25:58;;;;;;;;;;;;;;;2.45;66.01;100867.91;7287239;19;19923;-69
2024/01/16 00:28:25;;;;;;;;;;;;;;;2.49;68.57;100866.78;7288829;19;20267;-69
2024/01/16 00:30:52;;;;;;;;;;;;;;;2.50;69.58;100867.63;7289291;19;19919;-69
2024/01/16 00:33:19;;;;;;;;;;;;;;;2.43;66.64;100858.59;7311198;19;20664;-70
2024/01/16 00:35:46;;;;;;;;;;;;;;;2.35;64.42;100859.06;7315370;19;19930;-69
2024/01/16 00:38:13;;;;;;;;;;;;;;;2.32;64.08;100856.69;7297670;19;20010;-70
2024/01/16 00:40:40;;;;;;;;;;;;;;;2.28;63.73;100850.03;7286894;19;20577;-70
2024/01/16 00:43:07;;;;;;;;;;;;;;;2.28;63.68;100846.59;7277111;19;19926;-70
2024/01/16 00:45:33;;;;;;;;;;;;;;;2.25;64.05;100844.19;7297511;19;19926;-69
2024/01/16 00:48:00;;;;;;;;;;;;;;;2.27;64.56;100847.53;7289354;19;20339;-69
2024/01/16 00:50:29;;;;;;;;;;;;;;;2.27;64.75;100837.97;7299924;19;20729;-69
2024/01/16 00:52:56;;;;;;;;;;;;;;;2.28;65.26;100838.81;7295287;19;20786;-70
2024/01/16 00:55:23;;;;;;;;;;;;;;;2.27;65.47;100842.34;7304720;19;19926;-69
2024/01/16 00:57:51;;;;;;;;;;;;;;;2.23;65.82;100833.09;7303134;19;19919;-69
2024/01/16 01:00:18;;;;;;;;;;;;;;;2.25;65.51;100831.22;7290242;19;19930;-69
2024/01/16 01:02:45;;;;;;;;;;;;;;;2.22;65.71;100836.63;7282583;19;19922;-69
2024/01/16 01:05:12;;;;;;;;;;;;;;;2.22;65.69;100836.63;7295239;19;19915;-69
2024/01/16 01:07:39;;;;;;;;;;;;;;;2.24;65.47;100834.72;7291319;19;19937;-70
2024/01/16 01:10:06;;;;;;;;;;;;;;;2.21;65.73;100833.19;7292742;19;21151;-69
2024/01/16 01:12:33;;;;;;;;;;;;;;;2.24;66.08;100830.38;7304913;19;20876;-70
2024/01/16 01:14:59;;;;;;;;;;;;;;;2.28;68.59;100836.22;7300040;19;20046;-69
2024/01/16 01:17:30;;;;;;;;;;;;;;;2.30;69.43;100837.78;7304511;19;19919;-71
2024/01/16 01:19:57;;;;;;;;;;;;;;;2.24;67.10;100824.34;7291519;19;19915;-70
2024/01/16 01:22:24;;;;;;;;;;;;;;;2.25;66.86;100824.25;7306091;19;19923;-69
2024/01/16 01:24:51;;;;;;;;;;;;;;;2.27;66.96;100821.56;7311841;19;19937;-70
2024/01/16 01:27:17;;;;;;;;;;;;;;;2.25;66.85;100819.06;7292663;19;19919;-71
2024/01/16 01:29:47;;;;;;;;;;;;;;;2.27;69.11;100819.81;7287579;19;19915;-70
2024/01/16 01:32:14;;;;;;;;;;;;;;;2.26;67.94;100814.72;7288619;19;20218;-70
2024/01/16 01:34:41;;;;;;;;;;;;;;;2.28;68.69;100811.09;7301515;19;19926;-70
2024/01/16 01:37:11;;;;;;;;;;;;;;;2.26;67.39;100815.56;7305930;19;19919;-70
2024/01/16 01:39:38;;;;;;;;;;;;;;;2.22;66.34;100808.06;7283674;19;20483;-70
2024/01/16 01:42:05;;;;;;;;;;;;;;;2.23;66.58;100809.75;7281925;19;20374;-69
2024/01/16 01:44:32;;;;;;;;;;;;;;;2.11;66.51;100807.00;7297487;19;19923;-70
2024/01/16 01:46:59;;;;;;;;;;;;;;;2.08;66.69;100802.00;7294859;19;19929;-69
2024/01/16 01:49:27;;;;;;;;;;;;;;;2.08;67.02;100803.78;7303490;19;19940;-71
2024/01/16 01:51:55;;;;;;;;;;;;;;;2.06;67.06;100796.09;7293019;19;20221;-70
2024/01/16 01:54:22;;;;;;;;;;;;;;;2.01;66.66;100787.78;7270299;19;19915;-70
2024/01/16 01:56:49;;;;;;;;;;;;;;;1.99;66.97;100789.63;7295115;19;20501;-69
2024/01/16 01:59:19;;;;;;;;;;;;;;;1.95;67.74;100795.94;7298024;19;20031;-69
2024/01/16 02:01:46;;;;;;;;;;;;;;;1.92;67.85;100798.75;7295331;19;19919;-69
2024/01/16 02:04:15;;;;;;;;;;;;;;;1.97;68.36;100788.06;7286534;19;19922;-70
2024/01/16 02:06:44;;;;;;;;;;;;;;;2.03;68.26;100798.06;7285848;19;20537;-71
2024/01/16 02:09:13;;;;;;;;;;;;;;;2.07;68.60;100795.16;7292231;19;20406;-70
2024/01/16 02:11:41;;;;;;;;;;;;;;;2.07;68.05;100792.56;7289183;19;19927;-70
2024/01/16 02:14:08;;;;;;;;;;;;;;;2.11;68.41;100793.19;7296154;19;20882;-70
2024/01/16 02:16:39;;;;;;;;;;;;;;;2.14;68.90;100790.38;7295806;19;19927;-71
2024/01/16 02:19:07;;;;;;;;;;;;;;;2.14;68.48;100787.78;7302882;19;20301;-69
2024/01/16 02:21:39;;;;;;;;;;;;;;;2.19;68.73;100790.09;7305320;19;19927;-70
2024/01/16 02:24:07;;;;;;;;;;;;;;;2.24;69.04;100790.63;7293024;19;19933;-70
2024/01/16 02:26:33;;;;;;;;;;;;;;;2.27;68.79;100795.63;7285552;19;19930;-69
2024/01/16 02:29:02;;;;;;;;;;;;;;;2.27;68.88;100791.28;7300112;19;21078;-69
2024/01/16 02:31:29;;;;;;;;;;;;;;;2.26;69.04;100792.19;7292907;19;19923;-69
2024/01/16 02:33:56;;;;;;;;;;;;;;;2.31;69.48;100797.06;7281132;19;19991;-70
2024/01/16 02:36:23;;;;;;;;;;;;;;;2.34;71.17;100795.09;7291054;19;19922;-71
2024/01/16 02:38:49;;;;;;;;;;;;;;;2.36;71.54;100792.41;7281437;19;21073;-70
2024/01/16 02:41:20;;;;;;;;;;;;;;;2.36;73.73;100788.06;7292789;19;19919;-70
2024/01/16 02:43:47;;;;;;;;;;;;;;;2.36;73.01;100785.47;7286744;19;22543;-69
2024/01/16 02:46:14;;;;;;;;;;;;;;;2.27;70.87;100778.28;7295903;19;20929;-69
2024/01/16 02:48:42;;;;;;;;;;;;;;;2.22;70.35;100776.94;7290501;19;19987;-70
2024/01/16 02:51:09;;;;;;;;;;;;;;;2.18;70.55;100778.91;7286321;19;19965;-70
2024/01/16 02:53:36;;;;;;;;;;;;;;;2.14;70.79;100772.22;7291759;19;19959;-69
2024/01/16 02:56:03;;;;;;;;;;;;;;;2.08;70.09;100768.25;7287214;19;19918;-70
2024/01/16 02:58:33;;;;;;;;;;;;;;;2.07;70.74;100766.63;7294536;19;19931;-70
2024/01/16 03:01:00;;;;;;;;;;;;;;;2.08;70.58;100768.25;7297542;19;19926;-70
2024/01/16 03:03:27;;;;;;;;;;;;;;;2.13;71.91;100768.78;7286568;19;20701;-70
2024/01/16 03:05:55;;;;;;;;;;;;;;;2.14;72.73;100774.81;7289992;19;19955;-69
2024/01/16 03:08:23;;;;;;;;;;;;;;;2.13;73.08;100776.59;7303839;19;19925;-71
2024/01/16 03:10:50;;;;;;;;;;;;;;;2.14;72.82;100764.44;7290883;19;19956;-69
2024/01/16 03:13:17;;;;;;;;;;;;;;;2.06;72.05;100761.53;7290577;19;19954;-70
2024/01/16 03:15:44;;;;;;;;;;;;;;;2.01;71.25;100768.78;7301805;19;20269;-70
2024/01/16 03:18:11;;;;;;;;;;;;;;;1.96;70.78;100763.91;7299679;19;19918;-69
2024/01/16 03:20:38;;;;;;;;;;;;;;;1.93;70.83;100760.69;7286834;19;19959;-70
2024/01/16 03:23:05;;;;;;;;;;;;;;;1.89;70.65;100775.59;7280500;19;19919;-71
2024/01/16 03:25:38;;;;;;;;;;;;;;;1.83;71.05;100775.97;7285910;19;19919;-70
2024/01/16 03:28:07;;;;;;;;;;;;;;;1.80;71.48;100764.97;7298737;19;19922;-69
2024/01/16 03:30:35;;;;;;;;;;;;;;;1.79;71.82;100779.69;7291069;19;20900;-70
2024/01/16 03:33:02;;;;;;;;;;;;;;;1.77;71.63;100780.75;7283800;19;19918;-72
2024/01/16 03:35:29;;;;;;;;;;;;;;;1.78;72.23;100772.84;7302390;19;19926;-70
2024/01/16 03:37:56;;;;;;;;;;;;;;;1.84;73.31;100769.03;7315991;19;19978;-69
2024/01/16 03:40:23;;;;;;;;;;;;;;;1.81;73.22;100764.06;7295139;19;22510;-68
2024/01/16 03:42:50;;;;;;;;;;;;;;;1.80;72.47;100764.97;7290536;19;22361;-68
2024/01/16 03:45:17;;;;;;;;;;;;;;;1.77;72.12;100749.63;7301875;19;20078;-71
2024/01/16 03:47:46;;;;;;;;;;;;;;;1.74;72.18;100755.81;7291314;19;20807;-68
2024/01/16 03:50:13;;;;;;;;;;;;;;;1.75;72.47;100752.31;7283519;19;19919;-68
2024/01/16 03:52:40;;;;;;;;;;;;;;;1.77;72.93;100747.03;7296373;19;19926;-68
2024/01/16 03:55:13;;;;;;;;;;;;;;;1.79;72.92;100746.00;7297210;19;19923;-68
2024/01/16 03:57:42;;;;;;;;;;;;;;;1.77;72.76;100749.63;7286903;19;19918;-69
2024/01/16 04:00:12;;;;;;;;;;;;;;;1.78;72.62;100744.31;7298156;19;20011;-70
2024/01/16 04:02:39;;;;;;;;;;;;;;;1.76;72.39;100735.00;7287333;19;19923;-70
2024/01/16 04:05:09;;;;;;;;;;;;;;;1.77;73.06;100721.94;7279967;19;20592;-69
2024/01/16 04:07:36;;;;;;;;;;;;;;;1.75;73.31;100722.94;7293991;19;19919;-69
2024/01/16 04:10:05;;;;;;;;;;;;;;;1.74;73.01;100727.31;7305915;19;20373;-70
2024/01/16 04:12:32;;;;;;;;;;;;;;;1.74;72.81;100727.31;7299069;19;19915;-70
2024/01/16 04:14:59;;;;;;;;;;;;;;;1.77;73.23;100724.53;7292899;19;19986;-71
2024/01/16 04:17:26;;;;;;;;;;;;;;;1.83;74.92;100725.91;7280144;19;21276;-69
2024/01/16 04:19:53;;;;;;;;;;;;;;;1.83;74.83;100723.31;7287961;19;21112;-71
2024/01/16 04:22:19;;;;;;;;;;;;;;;1.79;73.69;100722.66;7289519;19;19914;-72
2024/01/16 04:24:47;;;;;;;;;;;;;;;1.79;72.83;100724.41;7286377;19;21658;-69
2024/01/16 04:27:14;;;;;;;;;;;;;;;1.73;73.24;100720.44;7293817;19;19938;-70
2024/01/16 04:29:41;;;;;;;;;;;;;;;1.70;72.79;100723.25;7302157;19;20883;-70
2024/01/16 04:32:08;;;;;;;;;;;;;;;1.71;73.08;100730.09;7283668;19;19919;-70
2024/01/16 04:34:35;;;;;;;;;;;;;;;1.71;73.57;100720.56;7283293;19;19919;-70
2024/01/16 04:37:03;;;;;;;;;;;;;;;1.70;73.91;100723.25;7294452;19;20779;-69
2024/01/16 04:39:30;;;;;;;;;;;;;;;1.68;73.93;100723.34;7289682;19;20458;-70
2024/01/16 04:41:57;;;;;;;;;;;;;;;1.69;73.88;100719.81;7287811;19;19930;-71
2024/01/16 04:44:24;;;;;;;;;;;;;;;1.73;74.28;100706.69;7288994;19;19925;-71
2024/01/16 04:46:50;;;;;;;;;;;;;;;1.75;73.82;100710.00;7297961;19;19987;-71
2024/01/16 04:49:18;;;;;;;;;;;;;;;1.74;73.32;100701.38;7291238;19;20132;-71
2024/01/16 04:51:44;;;;;;;;;;;;;;;1.66;73.38;100701.06;7292081;19;19927;-70
2024/01/16 04:54:12;;;;;;;;;;;;;;;1.67;73.44;100697.53;7294206;19;19922;-70
2024/01/16 04:56:38;;;;;;;;;;;;;;;1.65;73.94;100684.66;7302698;19;20677;-70
2024/01/16 04:59:05;;;;;;;;;;;;;;;1.69;74.19;100690.47;7297452;19;20954;-70
2024/01/16 05:01:32;;;;;;;;;;;;;;;1.67;74.22;100688.00;7289502;19;19927;-68
2024/01/16 05:03:59;;;;;;;;;;;;;;;1.64;73.54;100693.38;7295169;19;19923;-67
2024/01/16 05:06:26;;;;;;;;;;;;;;;1.67;74.01;100682.81;7305981;19;20936;-67
2024/01/16 05:08:53;;;;;;;;;;;;;;;1.69;74.44;100680.09;7304152;19;19938;-67
2024/01/16 05:11:20;;;;;;;;;;;;;;;1.64;74.53;100677.81;7282849;19;20757;-67
2024/01/16 05:13:47;;;;;;;;;;;;;;;1.62;74.38;100678.84;7276431;19;20014;-68
2024/01/16 05:16:14;;;;;;;;;;;;;;;1.61;74.01;100674.59;7301386;19;20010;-68
2024/01/16 05:18:41;;;;;;;;;;;;;;;1.61;74.39;100670.25;7290907;19;20277;-68
2024/01/16 05:21:09;;;;;;;;;;;;;;;1.62;74.01;100673.69;7291338;19;19944;-68
2024/01/16 05:23:35;;;;;;;;;;;;;;;1.62;74.81;100664.13;7285135;19;19994;-68
2024/01/16 05:26:03;;;;;;;;;;;;;;;1.60;75.78;100665.16;7288822;19;19927;-68
2024/01/16 05:28:29;;;;;;;;;;;;;;;1.60;76.10;100665.97;7279674;19;20618;-68
2024/01/16 05:30:56;;;;;;;;;;;;;;;1.55;76.44;100668.03;7285935;19;19953;-67
2024/01/16 05:33:23;;;;;;;;;;;;;;;1.53;75.65;100672.47;7295374;19;20547;-67
2024/01/16 05:35:50;;;;;;;;;;;;;;;1.53;76.96;100662.13;7291549;19;19931;-67
2024/01/16 05:38:17;;;;;;;;;;;;;;;1.53;77.41;100663.88;7295578;19;19914;-68
2024/01/16 05:40:44;;;;;;;;;;;;;;;1.46;76.50;100653.09;7295270;19;19918;-67
2024/01/16 05:43:11;;;;;;;;;;;;;;;1.45;76.81;100646.25;7293657;19;20134;-67
2024/01/16 05:45:39;;;;;;;;;;;;;;;1.46;75.84;100644.50;7301076;19;20679;-66
2024/01/16 05:48:07;;;;;;;;;;;;;;;1.38;76.41;100644.97;7292482;19;20011;-66
2024/01/16 05:50:34;;;;;;;;;;;;;;;1.39;76.93;100638.88;7295335;19;19915;-67
2024/01/16 05:53:02;;;;;;;;;;;;;;;1.37;77.12;100634.72;7292874;19;19988;-67
2024/01/16 05:55:32;;;;;;;;;;;;;;;1.37;77.22;100630.38;7289869;19;20009;-70
2024/01/16 05:58:02;;;;;;;;;;;;;;;1.35;75.95;100631.38;7293243;19;20528;-68
2024/01/16 06:00:29;;;;;;;;;;;;;;;1.39;76.71;100630.25;7298530;19;19926;-67
2024/01/16 06:02:56;;;;;;;;;;;;;;;1.36;75.99;100626.13;7296401;19;19942;-68
2024/01/16 06:05:23;;;;;;;;;;;;;;;1.33;76.29;100626.28;7291675;19;21525;-68
2024/01/16 06:07:49;;;;;;;;;;;;;;;1.32;76.77;100627.25;7287276;19;19923;-69
2024/01/16 06:10:20;;;;;;;;;;;;;;;1.32;76.70;100619.47;7290181;19;20015;-68
2024/01/16 06:12:47;;;;;;;;;;;;;;;1.37;76.62;100621.78;7288125;19;19918;-68
2024/01/16 06:15:14;;;;;;;;;;;;;;;1.43;77.73;100616.16;7282694;19;19926;-65
2024/01/16 06:17:40;;;;;;;;;;;;;;;1.49;78.19;100618.34;7295781;19;19922;-67
2024/01/16 06:20:08;;;;;;;;;;;;;;;1.54;79.84;100622.31;7293650;19;19926;-67
2024/01/16 06:22:35;;;;;;;;;;;;;;;1.53;79.17;100625.84;7285254;19;19922;-67
2024/01/16 06:25:02;;;;;;;;;;;;;;;1.55;79.31;100630.94;7306410;19;19925;-67
2024/01/16 06:27:29;;;;;;;;;;;;;;;1.51;77.45;100626.88;7310031;19;20155;-67
2024/01/16 06:29:56;;;;;;;;;;;;;;;1.51;76.24;100624.28;7314393;19;19914;-66
2024/01/16 06:32:23;;;;;;;;;;;;;;;1.53;75.87;100622.41;7310341;19;19918;-68
2024/01/16 06:34:50;;;;;;;;;;;;;;;1.59;75.48;100622.84;7307429;19;19924;-68
2024/01/16 06:37:17;;;;;;;;;;;;;;;1.64;75.70;100622.53;7298207;19;21738;-66
2024/01/16 06:39:44;;;;;;;;;;;;;;;1.70;75.47;100624.72;7299015;19;20010;-66
2024/01/16 06:42:11;;;;;;;;;;;;;;;1.73;76.49;100620.16;7300950;19;20636;-67
2024/01/16 06:44:38;;;;;;;;;;;;;;;1.67;75.62;100628.38;7292352;19;19935;-68
2024/01/16 06:47:05;;;;;;;;;;;;;;;1.66;74.89;100618.09;7301643;19;20636;-67
2024/01/16 06:49:31;;;;;;;;;;;;;;;1.66;74.57;100623.28;7285369;19;19941;-67
2024/01/16 06:51:59;;;;;;;;;;;;;;;1.65;74.09;100624.19;7283556;19;19923;-67
2024/01/16 06:54:25;;;;;;;;;;;;;;;1.64;74.30;100627.72;7291509;19;20387;-69
2024/01/16 06:56:52;;;;;;;;;;;;;;;1.61;74.63;100627.94;7300158;19;20005;-67
2024/01/16 06:59:21;;;;;;;;;;;;;;;1.62;74.55;100629.59;7306387;19;19923;-68
2024/01/16 07:01:48;;;;;;;;;;;;;;;1.63;74.60;100623.47;7290738;19;20960;-68
2024/01/16 07:04:15;;;;;;;;;;;;;;;1.61;74.34;100628.78;7298530;19;19927;-67
2024/01/16 07:06:43;;;;;;;;;;;;;;;1.64;74.91;100632.91;7301944;19;20670;-66
2024/01/16 07:09:13;;;;;;;;;;;;;;;1.66;75.11;100625.88;7308971;19;19974;-68
2024/01/16 07:11:42;;;;;;;;;;;;;;;1.64;74.63;100620.78;7309248;19;20002;-68
2024/01/16 07:14:10;;;;;;;;;;;;;;;1.62;74.96;100622.66;7302629;19;19929;-67
2024/01/16 07:16:37;;;;;;;;;;;;;;;1.53;74.56;100622.41;7307426;19;19934;-66
2024/01/16 07:19:04;;;;;;;;;;;;;;;1.50;74.63;100631.22;7303588;19;19993;-67
2024/01/16 07:21:31;;;;;;;;;;;;;;;1.51;74.65;100629.47;7297820;19;20320;-67
2024/01/16 07:23:58;;;;;;;;;;;;;;;1.47;74.99;100628.00;7291547;19;19949;-68
2024/01/16 07:26:25;;;;;;;;;;;;;;;1.42;75.46;100624.91;7299462;19;19918;-67
2024/01/16 07:28:52;;;;;;;;;;;;;;;1.48;75.49;100622.72;7291789;19;20009;-68
2024/01/16 07:31:21;;;;;;;;;;;;;;;1.46;75.13;100622.00;7302818;19;20014;-68
2024/01/16 07:33:48;;;;;;;;;;;;;;;1.51;76.36;100624.28;7296965;19;20918;-69
2024/01/16 07:36:16;;;;;;;;;;;;;;;1.50;75.19;100618.28;7292252;19;21324;-67
2024/01/16 07:38:47;;;;;;;;;;;;;;;1.52;75.75;100624.19;7307107;19;19953;-69
2024/01/16 07:41:17;;;;;;;;;;;;;;;1.56;77.75;100628.25;7299551;19;19930;-69
2024/01/16 07:43:44;;;;;;;;;;;;;;;1.51;76.57;100625.13;7296244;19;20657;-70
2024/01/16 07:46:16;;;;;;;;;;;;;;;1.53;77.53;100627.59;7295302;19;19911;-69
2024/01/16 07:48:43;;;;;;;;;;;;;;;1.53;77.64;100633.59;7292886;19;20477;-69
2024/01/16 07:51:10;;;;;;;;;;;;;;;1.48;77.80;100621.88;7296158;19;19919;-69
2024/01/16 07:53:37;;;;;;;;;;;;;;;1.47;77.47;100623.66;7284346;19;20451;-67
2024/01/16 07:56:04;;;;;;;;;;;;;;;1.48;77.86;100619.28;7297944;19;19919;-67
2024/01/16 07:58:31;;;;;;;;;;;;;;;1.51;77.44;100617.34;7297383;19;20703;-67
2024/01/16 08:00:58;;;;;;;;;;;;;;;1.57;77.62;100611.75;7301104;19;19943;-67
2024/01/16 08:03:25;;;;;;;;;;;;;;;2.03;89.91;100619.06;7290523;19;20821;-68
2024/01/16 08:05:52;;;;;;;;;;;;;;;2.35;91.18;100611.66;7296176;19;19925;-69
2024/01/16 08:08:19;;;;;;;;;;;;;;;2.26;83.48;100612.28;7283726;19;20049;-70
2024/01/16 08:10:46;;;;;;;;;;;;;;;2.17;78.04;100615.53;7288418;19;21585;-70
2024/01/16 08:13:13;;;;;;;;;;;;;;;2.09;77.43;100613.44;7285573;19;19971;-68
2024/01/16 08:15:40;;;;;;;;;;;;;;;2.03;75.96;100600.91;7287728;19;19919;-68
2024/01/16 08:18:07;;;;;;;;;;;;;;;1.97;75.80;100594.38;7290422;19;22612;-68
2024/01/16 08:20:34;;;;;;;;;;;;;;;1.91;75.27;100596.53;7294449;19;19922;-69
2024/01/16 08:23:02;;;;;;;;;;;;;;;1.79;75.21;100589.56;7279797;19;19931;-69
2024/01/16 08:25:29;;;;;;;;;;;;;;;1.78;75.85;100583.56;7300382;19;19922;-69
2024/01/16 08:27:55;;;;;;;;;;;;;;;1.74;75.87;100587.28;7297419;19;20954;-68
2024/01/16 08:30:23;;;;;;;;;;;;;;;1.73;75.65;100578.69;7295802;19;19990;-69
2024/01/16 08:32:50;;;;;;;;;;;;;;;1.63;75.26;100585.41;7301185;19;21198;-68
2024/01/16 08:35:18;;;;;;;;;;;;;;;1.66;75.43;100582.63;7291677;19;20186;-68
2024/01/16 08:37:45;;;;;;;;;;;;;;;1.65;75.66;100575.78;7279011;19;19953;-70
2024/01/16 08:40:13;;;;;;;;;;;;;;;1.69;75.96;100568.63;7291571;19;19963;-68
2024/01/16 08:42:41;;;;;;;;;;;;;;;1.73;75.77;100574.44;7301708;19;20014;-69
2024/01/16 08:45:08;;;;;;;;;;;;;;;1.71;75.81;100571.94;7298255;19;20369;-68
2024/01/16 08:47:34;;;;;;;;;;;;;;;1.77;75.25;100568.94;7292334;19;19997;-67
2024/01/16 08:50:02;;;;;;;;;;;;;;;1.82;75.87;100569.47;7296445;19;20497;-68
2024/01/16 08:52:29;;;;;;;;;;;;;;;1.89;77.63;100560.31;7289581;19;19956;-68
2024/01/16 08:54:56;;;;;;;;;;;;;;;1.97;78.82;100555.47;7293642;19;19942;-69
2024/01/16 08:57:23;;;;;;;;;;;;;;;2.03;80.05;100551.63;7290101;19;19918;-68
2024/01/16 08:59:52;;;;;;;;;;;;;;;2.00;79.81;100554.41;7292857;19;20293;-69
2024/01/16 09:02:19;;;;;;;;;;;;;;;1.96;78.94;100561.56;7283557;19;19982;-68
2024/01/16 09:04:47;;;;;;;;;;;;;;;1.97;77.57;100557.22;7270737;19;19923;-67
2024/01/16 09:07:15;;;;;;;;;;;;;;;2.00;77.15;100562.19;7277606;19;19930;-69
2024/01/16 09:09:43;;;;;;;;;;;;;;;2.00;77.40;100563.03;7286970;19;19998;-69
2024/01/16 09:12:09;;;;;;;;;;;;;;;1.98;74.97;100567.47;7294858;19;19930;-69
2024/01/16 09:14:37;;;;;;;;;;;;;;;2.05;75.14;100571.31;7298057;19;22016;-68
2024/01/16 09:17:04;;;;;;;;;;;;;;;2.10;74.95;100566.66;7291422;19;19950;-69
2024/01/16 09:19:31;;;;;;;;;;;;;;;2.10;74.02;100571.00;7297843;19;19925;-69
2024/01/16 09:21:58;;;;;;;;;;;;;;;2.03;74.02;100555.03;7287982;19;19963;-69
2024/01/16 09:24:25;;;;;;;;;;;;;;;2.01;73.63;100553.47;7293941;19;19923;-69
2024/01/16 09:26:52;;;;;;;;;;;;;;;2.04;73.85;100548.91;7282140;19;20778;-67
2024/01/16 09:29:19;;;;;;;;;;;;;;;2.06;74.21;100554.81;7285483;19;20475;-67
2024/01/16 09:31:46;;;;;;;;;;;;;;;2.15;74.32;100554.19;7303346;19;19933;-68
2024/01/16 09:34:13;;;;;;;;;;;;;;;2.26;76.53;100548.25;7285878;19;20695;-68
2024/01/16 09:36:40;;;;;;;;;;;;;;;2.26;75.12;100552.63;7287696;19;19976;-70
2024/01/16 09:39:11;;;;;;;;;;;;;;;2.31;73.82;100553.94;7308810;19;20455;-68
2024/01/16 09:41:44;;;;;;;;;;;;;;;2.41;74.36;100561.94;7309782;19;19933;-69
2024/01/16 09:44:11;;;;;;;;;;;;;;;2.50;75.27;100554.31;7288950;19;19919;-68
2024/01/16 09:46:38;;;;;;;;;;;;;;;2.59;75.68;100547.66;7293637;19;19964;-67
2024/01/16 09:49:06;;;;;;;;;;;;;;;2.65;74.65;100556.75;7302616;19;19994;-70
2024/01/16 09:51:37;;;;;;;;;;;;;;;2.71;72.83;100546.78;7294299;19;19998;-68
2024/01/16 09:54:08;;;;;;;;;;;;;;;2.74;71.79;100550.94;7288080;19;20032;-69
2024/01/16 09:56:38;;;;;;;;;;;;;;;2.72;71.23;100545.84;7276875;19;20973;-69
2024/01/16 09:59:07;;;;;;;;;;;;;;;2.74;72.25;100530.97;7284492;19;20793;-68
2024/01/16 10:01:36;;;;;;;;;;;;;;;2.82;73.43;100533.00;7283347;19;20290;-68
2024/01/16 10:04:03;;;;;;;;;;;;;;;2.86;73.67;100535.28;7293562;19;19939;-69
2024/01/16 10:06:31;;;;;;;;;;;;;;;2.87;71.21;100526.56;7294009;19;19945;-68
2024/01/16 10:08:58;;;;;;;;;;;;;;;2.88;70.29;100530.81;7273349;19;19918;-69
2024/01/16 10:11:25;;;;;;;;;;;;;;;2.89;69.55;100529.88;7293422;19;20139;-70
2024/01/16 10:13:52;;;;;;;;;;;;;;;2.90;69.69;100528.09;7285534;19;19919;-70
2024/01/16 10:16:21;;;;;;;;;;;;;;;2.90;69.02;100531.50;7281525;19;19923;-67
2024/01/16 10:19:07;;;;;;;;;;;;;;;2.92;68.49;100529.66;7297433;19;19918;-68
2024/01/16 10:21:34;;;;;;;;;;;;;;;3.05;69.19;100524.38;7300522;19;20514;-68
2024/01/16 10:24:10;;;;;;;;;;;;;;;3.11;68.96;100529.13;7297981;19;20008;-69
2024/01/16 10:26:37;;;;;;;;;;;;;;;3.14;69.11;100528.06;7295724;19;19919;-68
2024/01/16 10:29:05;;;;;;;;;;;;;;;3.20;69.60;100509.44;7295508;19;20233;-68
2024/01/16 10:31:32;;;;;;;;;;;;;;;3.27;71.10;100506.25;7298237;19;19946;-70
2024/01/16 10:33:59;;;;;;;;;;;;;;;3.33;70.98;100502.38;7305955;19;20450;-69
2024/01/16 10:36:26;;;;;;;;;;;;;;;3.35;69.46;100511.69;7303672;19;19922;-68
2024/01/16 10:39:03;;;;;;;;;;;;;;;3.41;69.14;100506.03;7294003;19;19915;-70
2024/01/16 10:41:30;;;;;;;;;;;;;;;3.50;70.94;100509.75;7297694;19;19933;-68
2024/01/16 10:44:04;;;;;;;;;;;;;;;3.60;70.40;100515.91;7294719;19;19917;-70
2024/01/16 10:46:34;;;;;;;;;;;;;;;3.63;69.27;100505.25;7297857;19;19926;-69
2024/01/16 10:49:11;;;;;;;;;;;;;;;3.63;68.52;100504.44;7305283;19;20049;-69
2024/01/16 10:51:54;;;;;;;;;;;;;;;3.71;68.41;100496.84;7305381;19;19922;-67
2024/01/16 10:54:21;;;;;;;;;;;;;;;3.78;67.79;100482.44;7287285;19;19927;-66
2024/01/16 10:56:49;;;;;;;;;;;;;;;3.80;66.97;100478.81;7289920;19;21106;-66
2024/01/16 10:59:33;;;;;;;;;;;;;;;3.83;66.42;100475.13;7301672;19;20110;-67
2024/01/16 11:02:01;;;;;;;;;;;;;;;3.86;64.97;100467.91;7311328;19;19914;-68
2024/01/16 11:04:28;;;;;;;;;;;;;;;3.92;63.63;100473.56;7310716;19;19990;-66
2024/01/16 11:06:56;;;;;;;;;;;;;;;3.97;66.68;100476.63;7289337;19;20707;-66
2024/01/16 11:09:24;;;;;;;;;;;;;;;4.01;67.39;100467.66;7288635;19;20417;-66
2024/01/16 11:11:53;;;;;;;;;;;;;;;4.02;67.92;100458.88;7284758;19;20006;-68
2024/01/16 11:14:22;;;;;;;;;;;;;;;4.05;68.19;100463.88;7275525;19;19922;-66
2024/01/16 11:16:50;;;;;;;;;;;;;;;4.07;68.28;100457.59;7305587;19;19923;-68
2024/01/16 11:19:17;;;;;;;;;;;;;;;4.12;67.67;100454.63;7301813;19;19978;-67
2024/01/16 11:22:05;;;;;;;;;;;;;;;4.17;67.33;100463.72;7291108;19;19919;-68
2024/01/16 11:24:32;;;;;;;;;;;;;;;4.19;66.75;100461.00;7288035;19;19923;-69
2024/01/16 11:26:59;;;;;;;;;;;;;;;4.23;66.68;100460.63;7286155;19;19923;-68
2024/01/16 11:29:26;;;;;;;;;;;;;;;4.29;66.50;100454.13;7300015;19;19931;-68
2024/01/16 11:31:54;;;;;;;;;;;;;;;4.27;65.39;100451.63;7295612;19;20693;-65
2024/01/16 11:34:41;;;;;;;;;;;;;;;4.35;65.06;100453.63;7284660;19;19927;-66
2024/01/16 11:37:08;;;;;;;;;;;;;;;4.39;65.26;100443.78;7290166;19;20980;-66
2024/01/16 11:39:35;;;;;;;;;;;;;;;4.44;65.73;100447.69;7293783;19;20143;-66
2024/01/16 11:42:05;;;;;;;;;;;;;;;4.49;65.67;100437.72;7279608;19;20298;-68
2024/01/16 11:44:38;;;;;;;;;;;;;;;4.52;65.35;100436.66;7276447;19;19990;-66
2024/01/16 11:47:05;;;;;;;;;;;;;;;4.60;64.92;100423.84;7303109;19;19933;-66
2024/01/16 11:49:32;;;;;;;;;;;;;;;4.61;64.15;100435.91;7288585;19;20010;-66
2024/01/16 11:52:00;;;;;;;;;;;;;;;4.71;64.92;100429.84;7289959;19;20754;-66
2024/01/16 11:54:27;;;;;;;;;;;;;;;4.77;64.60;100433.72;7288721;19;21138;-67
2024/01/16 11:56:53;;;;;;;;;;;;;;;4.84;63.00;100432.25;7294196;19;19923;-67
2024/01/16 11:59:43;;;;;;;;;;;;;;;4.90;64.02;100425.72;7290560;19;19923;-66
2024/01/16 12:02:14;;;;;;;;;;;;;;;4.93;64.25;100425.44;7294506;19;19933;-67
2024/01/16 12:04:41;;;;;;;;;;;;;;;4.93;63.25;100418.44;7291955;19;19923;-66
2024/01/16 12:07:08;;;;;;;;;;;;;;;4.95;62.05;100416.56;7302162;19;19930;-66
2024/01/16 12:09:35;;;;;;;;;;;;;;;5.01;62.36;100415.22;7298947;19;19915;-66
2024/01/16 12:12:03;;;;;;;;;;;;;;;5.07;62.70;100418.16;7285454;19;19926;-66
2024/01/16 12:14:30;;;;;;;;;;;;;;;5.11;63.36;100414.34;7292671;19;19963;-66
2024/01/16 12:17:11;;;;;;;;;;;;;;;5.22;64.13;100410.84;7293125;19;19922;-67
2024/01/16 12:19:40;;;;;;;;;;;;;;;5.27;62.13;100398.22;7294190;19;20033;-67
2024/01/16 12:22:13;;;;;;;;;;;;;;;5.36;62.92;100386.19;7297040;19;20228;-66
2024/01/16 12:24:40;;;;;;;;;;;;;;;5.42;63.25;100380.44;7313342;19;20742;-66
2024/01/16 12:27:08;;;;;;;;;;;;;;;5.45;62.80;100375.78;7312832;19;19932;-66
2024/01/16 12:29:35;;;;;;;;;;;;;;;5.50;62.61;100364.97;7317820;19;20569;-66
2024/01/16 12:32:07;;;;;;;;;;;;;;;5.51;63.23;100356.19;7314073;19;22566;-66
2024/01/16 12:34:35;;;;;;;;;;;;;;;5.51;62.57;100349.19;7292485;19;19922;-65
2024/01/16 12:37:06;;;;;;;;;;;;;;;5.50;62.44;100346.69;7314246;19;19923;-67
2024/01/16 12:39:41;;;;;;;;;;;;;;;5.51;62.28;100337.91;7279204;19;20554;-69
2024/01/16 12:42:09;;;;;;;;;;;;;;;5.56;61.95;100333.97;7278583;19;20761;-67
2024/01/16 12:44:36;;;;;;;;;;;;;;;5.62;62.60;100331.78;7278159;19;20460;-66
2024/01/16 12:47:03;;;;;;;;;;;;;;;5.66;62.93;100330.53;7269891;19;20286;-67
2024/01/16 12:49:31;;;;;;;;;;;;;;;5.67;63.96;100314.75;7285173;19;19919;-66
2024/01/16 12:52:19;;;;;;;;;;;;;;;5.73;62.74;100301.19;7281413;19;19922;-66